createdAt,value
2023-03-24T00:00:26.656Z,10.13
2023-03-24T00:02:53.842Z,10.73
2023-03-24T00:05:22.791Z,10.35
2023-03-24T00:07:54.377Z,12.02
2023-03-24T00:10:23.430Z,10.23
2023-03-24T00:12:51.499Z,10.88
2023-03-24T00:15:21.625Z,12.77
2023-03-24T00:17:52.826Z,11.63
2023-03-24T00:20:22.401Z,11.52
2023-03-24T00:22:57.199Z,10.88
2023-03-24T00:25:28.437Z,12.05
2023-03-24T00:27:58.412Z,10.70
2023-03-24T00:30:26.633Z,11.82
2023-03-24T00:32:54.315Z,11.85
2023-03-24T00:35:22.102Z,11.55
2023-03-24T00:37:52.062Z,11.80
2023-03-24T00:40:21.678Z,10.98
2023-03-24T00:42:50.583Z,12.13
2023-03-24T00:45:20.892Z,10.50
2023-03-24T00:47:50.364Z,12.00
2023-03-24T00:50:20.683Z,11.25
2023-03-24T00:52:49.361Z,10.55
2023-03-24T00:55:16.819Z,11.38
2023-03-24T00:57:49.812Z,10.35
2023-03-24T01:00:27.248Z,12.43
2023-03-24T01:02:56.809Z,12.32
2023-03-24T01:05:28.347Z,12.82
2023-03-24T01:08:09.343Z,10.68
2023-03-24T01:10:50.283Z,12.23
2023-03-24T01:13:18.338Z,12.20
2023-03-24T01:15:45.485Z,11.73
2023-03-24T01:18:14.789Z,12.13
2023-03-24T01:20:45.885Z,11.77
2023-03-24T01:23:15.620Z,11.45
2023-03-24T01:25:45.499Z,13.50
2023-03-24T01:28:13.150Z,11.88
2023-03-24T01:30:40.702Z,13.00
2023-03-24T01:33:08.100Z,12.15
2023-03-24T01:35:35.668Z,11.52
2023-03-24T01:38:07.616Z,12.07
2023-03-24T01:40:37.198Z,12.85
2023-03-24T01:43:05.360Z,11.20
2023-03-24T01:45:51.212Z,12.70
2023-03-24T01:48:47.571Z,12.63
2023-03-24T01:51:31.645Z,12.50
2023-03-24T01:54:20.408Z,11.57
2023-03-24T01:56:55.791Z,13.20
2023-03-24T01:59:29.026Z,13.43
2023-03-24T02:02:17.602Z,12.48
2023-03-24T02:04:54.261Z,11.48
2023-03-24T02:07:38.956Z,13.43
2023-03-24T02:10:10.353Z,11.95
2023-03-24T02:12:37.521Z,11.40
2023-03-24T02:15:10.543Z,13.07
2023-03-24T02:18:08.305Z,12.05
2023-03-24T02:21:36.997Z,12.20
2023-03-24T02:27:06.333Z,12.30
2023-03-24T02:29:52.177Z,11.73
2023-03-24T02:32:35.343Z,12.70
2023-03-24T02:35:05.519Z,12.63
2023-03-24T02:37:38.563Z,13.93
2023-03-24T02:40:54.506Z,12.52
2023-03-24T02:43:53.816Z,12.25
2023-03-24T02:47:01.362Z,11.98
2023-03-24T02:49:43.497Z,11.40
2023-03-24T02:52:28.953Z,11.57
2023-03-24T02:55:13.842Z,12.50
2023-03-24T02:57:49.761Z,12.55
2023-03-24T03:01:03.106Z,11.18
2023-03-24T03:03:55.823Z,12.20
2023-03-24T03:06:46.443Z,11.50
2023-03-24T03:09:18.177Z,13.07
2023-03-24T03:11:52.420Z,12.90
2023-03-24T03:14:29.868Z,12.77
2023-03-24T03:19:41.587Z,12.98
2023-03-24T03:22:16.757Z,12.00
2023-03-24T03:24:50.663Z,13.15
2023-03-24T03:27:22.338Z,12.55
2023-03-24T03:30:00.398Z,13.52
2023-03-24T03:32:32.145Z,12.65
2023-03-24T03:35:29.323Z,14.10
2023-03-24T03:38:14.771Z,14.80
2023-03-24T03:40:51.662Z,13.95
2023-03-24T03:43:23.144Z,14.68
2023-03-24T03:45:50.337Z,13.02
2023-03-24T03:48:21.732Z,14.00
2023-03-24T03:50:49.749Z,12.70
2023-03-24T03:53:22.652Z,14.48
2023-03-24T03:55:49.909Z,13.45
2023-03-24T03:58:17.328Z,13.43
2023-03-24T04:00:51.632Z,13.77
2023-03-24T04:04:20.434Z,14.10
2023-03-24T04:07:19.834Z,14.13
2023-03-24T04:10:21.811Z,14.98
2023-03-24T04:13:14.473Z,13.75
2023-03-24T04:16:21.178Z,13.18
2023-03-24T04:19:29.757Z,14.02
2023-03-24T04:22:03.164Z,13.93
2023-03-24T04:24:54.835Z,15.65
2023-03-24T04:27:38.691Z,14.63
2023-03-24T04:30:37.411Z,15.90
2023-03-24T04:33:10.152Z,15.35
2023-03-24T04:35:49.534Z,15.52
2023-03-24T04:38:27.745Z,14.40
2023-03-24T04:41:19.882Z,16.35
2023-03-24T04:43:58.965Z,15.73
2023-03-24T04:46:27.291Z,17.30
2023-03-24T04:49:08.079Z,16.95
2023-03-24T04:51:37.451Z,15.60
2023-03-24T04:54:07.564Z,14.77
2023-03-24T04:56:51.063Z,15.65
2023-03-24T04:59:23.609Z,16.30
2023-03-24T05:01:50.972Z,16.65
2023-03-24T05:04:37.166Z,17.48
2023-03-24T05:07:21.533Z,16.63
2023-03-24T05:09:52.406Z,18.25
2023-03-24T05:12:19.551Z,16.30
2023-03-24T05:15:09.471Z,15.02
2023-03-24T05:17:37.409Z,18.08
2023-03-24T05:20:10.987Z,18.50
2023-03-24T05:22:40.625Z,17.08
2023-03-24T05:25:08.413Z,18.55
2023-03-24T05:27:35.345Z,17.42
2023-03-24T05:30:15.016Z,19.38
2023-03-24T05:32:43.458Z,17.73
2023-03-24T05:35:11.781Z,17.45
2023-03-24T05:37:39.423Z,16.55
2023-03-24T05:40:07.421Z,17.67
2023-03-24T05:42:54.276Z,18.05
2023-03-24T05:45:25.619Z,17.92
2023-03-24T05:47:53.525Z,17.45
2023-03-24T05:50:29.638Z,19.05
2023-03-24T05:52:57.373Z,19.85
2023-03-24T05:58:34.810Z,19.13
2023-03-24T06:01:07.568Z,17.63
2023-03-24T06:03:39.215Z,17.98
2023-03-24T06:06:16.805Z,20.30
2023-03-24T06:08:45.282Z,18.60
2023-03-24T06:11:13.878Z,18.63
2023-03-24T06:13:50.727Z,19.50
2023-03-24T06:16:19.049Z,19.45
2023-03-24T06:19:00.936Z,19.02
2023-03-24T06:21:50.697Z,20.80
2023-03-24T06:24:21.598Z,20.95
2023-03-24T06:26:50.472Z,19.75
2023-03-24T06:29:18.277Z,20.15
2023-03-24T06:31:48.476Z,19.33
2023-03-24T06:34:17.082Z,19.15
2023-03-24T06:36:52.688Z,17.92
2023-03-24T06:39:20.303Z,20.05
2023-03-24T06:41:47.660Z,18.23
2023-03-24T06:44:14.710Z,18.20
2023-03-24T06:46:42.856Z,18.08
2023-03-24T06:49:09.952Z,17.70
2023-03-24T06:51:37.178Z,16.60
2023-03-24T06:54:04.604Z,15.70
2023-03-24T06:56:31.721Z,16.00
2023-03-24T06:59:01.481Z,16.05
2023-03-24T07:01:35.391Z,14.25
2023-03-24T07:04:26.011Z,15.15
2023-03-24T07:07:27.829Z,15.20
2023-03-24T07:10:07.888Z,14.32
2023-03-24T07:12:35.713Z,14.43
2023-03-24T07:15:04.709Z,13.18
2023-03-24T07:17:31.896Z,13.32
2023-03-24T07:20:16.127Z,13.98
2023-03-24T07:23:02.427Z,14.48
2023-03-24T07:25:42.460Z,13.77
2023-03-24T07:28:29.766Z,12.95
2023-03-24T07:30:57.092Z,13.88
2023-03-24T07:33:25.145Z,13.85
2023-03-24T07:35:57.561Z,12.93
2023-03-24T07:38:26.832Z,11.02
2023-03-24T07:41:00.035Z,13.18
2023-03-24T07:43:28.832Z,12.38
2023-03-24T07:46:14.299Z,12.85
2023-03-24T07:48:41.401Z,12.23
2023-03-24T07:51:08.666Z,11.85
2023-03-24T07:54:02.074Z,12.25
2023-03-24T07:56:44.084Z,11.85
2023-03-24T07:59:12.358Z,12.82
2023-03-24T08:01:56.984Z,11.30
2023-03-24T08:04:38.672Z,12.50
2023-03-24T08:07:28.348Z,12.15
2023-03-24T08:09:55.276Z,12.65
2023-03-24T08:12:22.325Z,12.45
2023-03-24T08:14:49.699Z,12.23
2023-03-24T08:17:16.624Z,11.30
2023-03-24T08:19:58.485Z,11.02
2023-03-24T08:22:27.324Z,12.00
2023-03-24T08:24:54.259Z,10.32
2023-03-24T08:27:21.580Z,11.50
2023-03-24T08:29:48.515Z,9.55
2023-03-24T08:32:15.492Z,8.93
2023-03-24T08:34:42.488Z,8.90
2023-03-24T08:37:09.519Z,9.98
2023-03-24T08:39:36.447Z,9.50
2023-03-24T08:42:03.767Z,8.65
2023-03-24T08:44:32.885Z,9.25
2023-03-24T08:47:03.796Z,9.27
2023-03-24T08:49:31.009Z,9.38
2023-03-24T08:51:59.522Z,8.35
2023-03-24T08:54:26.770Z,8.57
2023-03-24T08:56:53.817Z,8.32
2023-03-24T08:59:21.007Z,8.88
2023-03-24T09:01:48.382Z,7.30
2023-03-24T09:04:15.556Z,8.15
2023-03-24T09:06:42.805Z,7.97
2023-03-24T09:09:09.767Z,7.28
2023-03-24T09:11:38.502Z,8.15
2023-03-24T09:14:05.776Z,8.35
2023-03-24T09:16:32.860Z,7.03
2023-03-24T09:18:59.881Z,7.10
2023-03-24T09:21:26.844Z,8.48
2023-03-24T09:23:53.870Z,7.97
2023-03-24T09:26:21.531Z,7.25
2023-03-24T09:28:48.485Z,7.22
2023-03-24T09:31:16.038Z,7.07
2023-03-24T09:33:43.102Z,5.88
2023-03-24T09:36:11.309Z,6.03
2023-03-24T09:38:38.504Z,6.75
2023-03-24T09:41:19.448Z,6.13
2023-03-24T09:43:59.238Z,5.75
2023-03-24T09:46:33.808Z,6.13
2023-03-24T09:49:01.088Z,6.13
2023-03-24T09:51:29.195Z,5.60
2023-03-24T09:54:00.833Z,5.47
2023-03-24T09:56:30.912Z,6.43
2023-03-24T09:59:08.317Z,5.80
2023-03-24T10:01:36.523Z,5.90
2023-03-24T10:04:05.151Z,5.93
2023-03-24T10:06:41.970Z,5.97
2023-03-24T10:09:29.126Z,5.78
2023-03-24T10:12:10.086Z,5.60
2023-03-24T10:14:50.289Z,5.53
2023-03-24T10:17:29.206Z,5.28
2023-03-24T10:20:17.273Z,5.97
2023-03-24T10:22:53.176Z,6.03
2023-03-24T10:25:41.370Z,6.47
2023-03-24T10:28:35.264Z,5.80
2023-03-24T10:31:09.880Z,5.82
2023-03-24T10:33:42.961Z,6.43
2023-03-24T10:36:14.880Z,6.10
2023-03-24T10:38:42.442Z,6.65
2023-03-24T10:41:22.605Z,6.28
2023-03-24T10:43:51.968Z,7.15
2023-03-24T10:46:23.614Z,6.80
2023-03-24T10:48:54.733Z,6.65
2023-03-24T10:51:26.776Z,6.60
2023-03-24T10:54:11.182Z,7.10
2023-03-24T10:56:43.910Z,6.45
2023-03-24T11:00:01.798Z,6.70
2023-03-24T11:02:32.201Z,6.30
2023-03-24T11:05:03.739Z,5.82
2023-03-24T11:07:40.783Z,5.72
2023-03-24T11:10:10.486Z,6.88
2023-03-24T11:12:40.978Z,6.93
2023-03-24T11:15:31.535Z,7.57
2023-03-24T11:18:04.361Z,7.78
2023-03-24T11:20:37.501Z,7.13
2023-03-24T11:23:09.855Z,6.60
2023-03-24T11:25:40.574Z,6.13
2023-03-24T11:28:14.910Z,6.90
2023-03-24T11:30:50.770Z,5.80
2023-03-24T11:33:20.810Z,6.68
2023-03-24T11:36:25.181Z,6.35
2023-03-24T11:39:00.446Z,5.60
2023-03-24T11:41:28.252Z,5.65
2023-03-24T11:44:22.585Z,4.97
2023-03-24T11:47:12.611Z,5.22
2023-03-24T11:49:49.032Z,4.93
2023-03-24T11:52:31.608Z,5.10
2023-03-24T11:54:58.571Z,5.22
2023-03-24T11:57:46.173Z,4.93
2023-03-24T12:00:16.421Z,4.78
2023-03-24T12:03:10.185Z,5.25
2023-03-24T12:05:41.815Z,4.97
2023-03-24T12:08:17.852Z,5.18
2023-03-24T12:11:17.460Z,4.72
2023-03-24T12:13:49.774Z,4.93
2023-03-24T12:16:39.279Z,5.10
2023-03-24T12:19:30.858Z,5.40
2023-03-24T12:22:33.760Z,5.40
2023-03-24T12:25:22.026Z,5.28
2023-03-24T12:28:10.576Z,5.68
2023-03-24T12:30:55.886Z,5.50
2023-03-24T12:33:59.079Z,5.55
2023-03-24T12:36:39.202Z,4.75
2023-03-24T12:39:12.509Z,4.78
2023-03-24T12:42:19.400Z,4.40
2023-03-24T12:45:10.593Z,4.43
2023-03-24T12:48:00.769Z,4.00
2023-03-24T12:50:53.103Z,3.83
2023-03-24T12:53:39.840Z,4.25
2023-03-24T12:56:17.638Z,4.03
2023-03-24T12:58:47.466Z,4.15
2023-03-24T13:01:34.158Z,3.97
2023-03-24T13:04:10.633Z,3.58
2023-03-24T13:06:45.555Z,4.30
2023-03-24T13:09:46.346Z,4.32
2023-03-24T13:12:15.909Z,4.50
2023-03-24T13:14:58.032Z,3.97
2023-03-24T13:17:35.003Z,3.53
2023-03-24T13:22:36.331Z,3.80
2023-03-24T13:25:17.778Z,4.03
2023-03-24T13:27:49.212Z,4.10
2023-03-24T13:30:25.256Z,3.72
2023-03-24T13:33:16.465Z,3.85
2023-03-24T13:35:53.744Z,3.92
2023-03-24T13:38:43.673Z,4.10
2023-03-24T13:41:33.810Z,3.80
2023-03-24T13:44:06.670Z,3.67
2023-03-24T13:46:37.787Z,3.90
2023-03-24T13:49:11.686Z,3.10
2023-03-24T13:51:45.247Z,3.22
2023-03-24T13:54:22.167Z,3.47
2023-03-24T13:57:17.286Z,3.65
2023-03-24T14:00:12.213Z,3.78
2023-03-24T14:02:43.789Z,3.58
2023-03-24T14:05:29.187Z,3.33
2023-03-24T14:07:59.209Z,3.20
2023-03-24T14:10:26.182Z,2.88
2023-03-24T14:13:04.443Z,3.42
2023-03-24T14:15:51.793Z,3.08
2023-03-24T14:21:05.721Z,3.70
2023-03-24T14:23:43.415Z,3.55
2023-03-24T14:26:20.157Z,3.70
2023-03-24T14:28:50.487Z,3.55
2023-03-24T14:31:29.462Z,3.00
2023-03-24T14:34:02.667Z,3.20
2023-03-24T14:36:41.120Z,3.53
2023-03-24T14:39:26.587Z,3.20
2023-03-24T14:41:55.324Z,3.40
2023-03-24T14:44:44.995Z,3.65
2023-03-24T14:47:16.278Z,3.15
2023-03-24T14:49:46.561Z,3.15
2023-03-24T14:52:19.588Z,3.20
2023-03-24T14:54:59.526Z,3.33
2023-03-24T14:57:29.579Z,3.65
2023-03-24T15:00:12.162Z,3.28
2023-03-24T15:02:44.775Z,2.92
2023-03-24T15:05:17.261Z,3.10
2023-03-24T15:08:05.681Z,3.20
2023-03-24T15:10:54.849Z,2.80
2023-03-24T15:13:33.029Z,3.28
2023-03-24T15:16:01.310Z,3.10
2023-03-24T15:18:28.888Z,3.45
2023-03-24T15:20:55.930Z,2.70
2023-03-24T15:23:30.472Z,2.95
2023-03-24T15:25:57.667Z,3.00
2023-03-24T15:28:27.380Z,3.08
2023-03-24T15:30:56.406Z,3.30
2023-03-24T15:33:23.772Z,3.40
2023-03-24T15:35:57.290Z,3.10
2023-03-24T15:38:32.467Z,3.22
2023-03-24T15:41:10.357Z,3.10
2023-03-24T15:43:51.090Z,2.83
2023-03-24T15:46:31.487Z,3.08
2023-03-24T15:49:00.083Z,3.35
2023-03-24T15:51:56.184Z,3.28
2023-03-24T15:54:41.231Z,3.25
2023-03-24T15:57:21.887Z,3.50
2023-03-24T15:59:58.860Z,3.05
2023-03-24T16:02:39.170Z,3.03
2023-03-24T16:05:40.377Z,4.22
2023-03-24T16:08:41.198Z,3.08
2023-03-24T16:11:12.180Z,2.75
2023-03-24T16:13:41.288Z,3.10
2023-03-24T16:16:14.535Z,2.45
2023-03-24T16:18:46.227Z,2.97
2023-03-24T16:21:33.451Z,2.88
2023-03-24T16:24:00.779Z,2.60
2023-03-24T16:26:32.863Z,3.20
2023-03-24T16:29:13.343Z,3.40
2023-03-24T16:31:40.282Z,3.05
2023-03-24T16:34:07.277Z,2.42
2023-03-24T16:36:34.546Z,2.72
2023-03-24T16:39:02.738Z,2.70
2023-03-24T16:41:30.278Z,2.47
2023-03-24T16:43:57.292Z,2.30
2023-03-24T16:46:27.366Z,2.95
2023-03-24T16:48:54.806Z,2.85
2023-03-24T16:51:22.268Z,2.60
2023-03-24T16:53:49.325Z,2.70
2023-03-24T16:56:19.504Z,2.95
2023-03-24T16:58:48.207Z,2.50
2023-03-24T17:01:27.551Z,2.55
2023-03-24T17:03:56.070Z,3.42
2023-03-24T17:06:23.711Z,3.30
2023-03-24T17:08:50.921Z,3.53
2023-03-24T17:11:24.159Z,3.15
2023-03-24T17:13:51.735Z,2.97
2023-03-24T17:16:18.735Z,3.03
2023-03-24T17:18:46.122Z,2.97
2023-03-24T17:21:16.915Z,2.83
2023-03-24T17:23:46.971Z,2.70
2023-03-24T17:26:13.959Z,2.20
2023-03-24T17:28:41.027Z,2.92
2023-03-24T17:31:08.281Z,2.90
2023-03-24T17:33:36.665Z,2.88
2023-03-24T17:36:04.330Z,2.90
2023-03-24T17:38:31.375Z,2.80
2023-03-24T17:41:03.277Z,4.20
2023-03-24T17:43:30.965Z,2.90
2023-03-24T17:45:58.792Z,3.42
2023-03-24T17:48:26.467Z,3.45
2023-03-24T17:50:54.160Z,3.30
2023-03-24T17:53:27.077Z,3.40
2023-03-24T17:55:59.040Z,3.55
2023-03-24T17:58:31.960Z,3.25
2023-03-24T18:01:07.743Z,3.65
2023-03-24T18:03:38.109Z,3.33
2023-03-24T18:06:10.167Z,3.00
2023-03-24T18:08:38.424Z,3.30
2023-03-24T18:11:11.147Z,3.42
2023-03-24T18:13:38.492Z,3.15
2023-03-24T18:16:19.839Z,2.95
2023-03-24T18:18:49.748Z,3.30
2023-03-24T18:21:17.717Z,3.30
2023-03-24T18:23:46.747Z,3.63
2023-03-24T18:26:14.957Z,4.28
2023-03-24T18:28:42.996Z,3.97
2023-03-24T18:31:16.070Z,3.83
2023-03-24T18:33:46.124Z,4.32
2023-03-24T18:36:21.644Z,4.15
2023-03-24T18:38:49.190Z,3.95
2023-03-24T18:41:18.583Z,4.40
2023-03-24T18:43:48.208Z,4.38
2023-03-24T18:46:16.617Z,4.25
2023-03-24T18:48:44.102Z,4.28
2023-03-24T18:51:11.674Z,4.90
2023-03-24T18:53:39.240Z,4.60
2023-03-24T18:56:08.128Z,4.60
2023-03-24T18:58:38.212Z,4.22
2023-03-24T19:01:09.785Z,3.92
2023-03-24T19:03:39.103Z,4.20
2023-03-24T19:06:07.514Z,3.67
2023-03-24T19:08:37.998Z,4.30
2023-03-24T19:11:05.588Z,3.65
2023-03-24T19:13:33.424Z,4.43
2023-03-24T19:16:01.754Z,4.43
2023-03-24T19:18:28.754Z,4.07
2023-03-24T19:20:57.693Z,4.85
2023-03-24T19:23:25.869Z,4.80
2023-03-24T19:25:56.326Z,4.68
2023-03-24T19:28:29.734Z,4.50
2023-03-24T19:30:57.527Z,4.70
2023-03-24T19:33:24.502Z,5.00
2023-03-24T19:35:52.290Z,5.15
2023-03-24T19:38:24.053Z,8.48
2023-03-24T19:40:52.901Z,6.70
2023-03-24T19:43:21.693Z,6.88
2023-03-24T19:45:50.218Z,7.63
2023-03-24T19:48:17.602Z,7.25
2023-03-24T19:50:46.166Z,6.78
2023-03-24T19:53:13.591Z,5.20
2023-03-24T19:55:40.751Z,5.57
2023-03-24T19:58:07.880Z,5.35
2023-03-24T20:00:35.140Z,4.57
2023-03-24T20:03:02.337Z,4.93
2023-03-24T20:05:29.441Z,4.53
2023-03-24T20:07:59.762Z,4.68
2023-03-24T20:10:28.174Z,4.78
2023-03-24T20:12:55.616Z,5.07
2023-03-24T20:15:23.044Z,4.95
2023-03-24T20:17:50.023Z,4.90
2023-03-24T20:20:17.051Z,5.10
2023-03-24T20:22:45.914Z,6.65
2023-03-24T20:25:16.191Z,6.05
2023-03-24T20:27:45.485Z,5.03
2023-03-24T20:30:14.414Z,5.30
2023-03-24T20:32:41.411Z,5.45
2023-03-24T20:35:09.251Z,5.40
2023-03-24T20:37:36.483Z,5.80
2023-03-24T20:40:05.501Z,6.05
2023-03-24T20:42:33.786Z,5.50
2023-03-24T20:45:01.022Z,6.22
2023-03-24T20:47:28.137Z,6.65
2023-03-24T20:49:55.366Z,6.15
2023-03-24T20:52:23.416Z,5.72
2023-03-24T20:54:51.535Z,6.38
2023-03-24T20:57:19.390Z,6.30
2023-03-24T20:59:49.531Z,7.40
2023-03-24T21:02:16.624Z,7.00
2023-03-24T21:04:43.741Z,6.65
2023-03-24T21:07:11.443Z,11.00
2023-03-24T21:09:38.555Z,8.07
2023-03-24T21:12:06.724Z,7.07
2023-03-24T21:14:34.167Z,7.47
2023-03-24T21:17:01.567Z,7.80
2023-03-24T21:19:28.735Z,8.73
2023-03-24T21:21:56.655Z,8.20
2023-03-24T21:24:24.396Z,7.40
2023-03-24T21:26:51.566Z,6.55
2023-03-24T21:29:18.602Z,7.78
2023-03-24T21:31:46.126Z,6.95
2023-03-24T21:34:13.083Z,6.82
2023-03-24T21:36:40.543Z,7.18
2023-03-24T21:39:09.327Z,6.85
2023-03-24T21:41:39.025Z,6.28
2023-03-24T21:44:08.562Z,6.13
2023-03-24T21:46:37.054Z,6.30
2023-03-24T21:49:05.197Z,6.18
2023-03-24T21:51:34.640Z,7.53
2023-03-24T21:54:06.650Z,7.10
2023-03-24T21:56:34.869Z,6.05
2023-03-24T21:59:02.004Z,7.13
2023-03-24T22:01:29.672Z,7.10
2023-03-24T22:03:58.895Z,7.97
2023-03-24T22:06:29.296Z,7.60
2023-03-24T22:08:58.796Z,7.82
2023-03-24T22:11:25.948Z,7.35
2023-03-24T22:13:53.871Z,6.88
2023-03-24T22:16:21.119Z,7.03
2023-03-24T22:18:48.084Z,7.40
2023-03-24T22:21:15.090Z,7.10
2023-03-24T22:23:43.041Z,6.95
2023-03-24T22:26:13.226Z,6.80
2023-03-24T22:28:40.788Z,6.38
2023-03-24T22:31:17.404Z,6.40
2023-03-24T22:33:44.805Z,6.57
2023-03-24T22:36:30.506Z,6.45
2023-03-24T22:39:16.238Z,7.38
2023-03-24T22:41:46.232Z,7.55
2023-03-24T22:44:13.552Z,8.18
2023-03-24T22:46:40.787Z,8.18
2023-03-24T22:49:07.757Z,7.57
2023-03-24T22:51:34.732Z,6.85
2023-03-24T22:54:01.669Z,7.40
2023-03-24T22:56:28.720Z,8.20
2023-03-24T22:58:55.700Z,7.50
2023-03-24T23:01:23.022Z,7.35
2023-03-24T23:03:50.015Z,7.43
2023-03-24T23:06:16.970Z,6.93
2023-03-24T23:08:43.984Z,6.60
2023-03-24T23:11:11.886Z,6.40
2023-03-24T23:13:39.044Z,6.68
2023-03-24T23:16:07.040Z,7.03
2023-03-24T23:18:34.088Z,6.78
2023-03-24T23:21:03.119Z,6.35
2023-03-24T23:23:30.114Z,7.00
2023-03-24T23:25:57.560Z,6.72
2023-03-24T23:28:24.681Z,6.30
2023-03-24T23:30:53.706Z,5.57
2023-03-24T23:33:22.386Z,6.78
2023-03-24T23:35:50.955Z,6.07
2023-03-24T23:38:18.058Z,7.15
2023-03-24T23:40:46.055Z,6.72
2023-03-24T23:43:13.549Z,7.10
2023-03-24T23:45:40.954Z,7.15
2023-03-24T23:48:08.238Z,7.70
2023-03-24T23:50:35.288Z,6.82
2023-03-24T23:53:02.265Z,6.90
2023-03-24T23:55:29.444Z,6.35
2023-03-24T23:57:56.787Z,6.80
